Time;durP1;ratioP1;P1;durP2;ratioP2;P2;SDS_P1;SDS_P2;PMS_P1;PMS_P2;Temp;Humidity;BMP_temperature;BMP_pressure;BME280_temperature;BME280_humidity;BME280_pressure;Samples;Min_cycle;Max_cycle;Signal;HPM_P1;HPM_P2
2023/03/01 00:00:07;;;;;;;37.63;19.98;;;;;;;6.61;85.72;100669.97;10307196;28;20475;-77
2023/03/01 00:05:08;;;;;;;30.25;17.23;;;;;;;7.20;84.92;100746.69;10290915;28;20047;-78
2023/03/01 00:10:10;;;;;;;29.10;17.88;;;;;;;7.31;85.53;100736.00;10291128;28;20423;-77
2023/03/01 00:15:11;;;;;;;27.83;17.02;;;;;;;7.10;84.32;100696.47;10290461;28;20051;-78
2023/03/01 00:20:12;;;;;;;26.70;17.48;;;;;;;7.39;84.82;100740.56;10292589;28;20094;-78
2023/03/01 00:25:12;;;;;;;29.90;17.60;;;;;;;7.53;84.65;100758.69;10291879;28;20098;-78
2023/03/01 00:30:13;;;;;;;29.67;17.48;;;;;;;7.48;85.24;100747.72;10290649;28;20043;-78
2023/03/01 00:35:14;;;;;;;39.55;21.27;;;;;;;7.55;85.39;100746.16;10291435;28;20069;-78
2023/03/01 00:40:16;;;;;;;25.50;17.88;;;;;;;7.43;85.34;100728.78;10299158;28;20566;-78
2023/03/01 00:45:17;;;;;;;32.15;20.67;;;;;;;7.37;85.50;100718.75;10299488;28;20158;-78
2023/03/01 00:50:18;;;;;;;108.72;52.33;;;;;;;7.09;85.51;100684.25;10298953;28;20045;-78
2023/03/01 00:55:19;;;;;;;57.45;33.33;;;;;;;7.32;86.01;100729.72;10298254;28;20077;-78
2023/03/01 01:00:20;;;;;;;85.85;43.75;;;;;;;7.17;86.03;100702.88;10297901;28;20080;-78
2023/03/01 01:05:21;;;;;;;139.95;67.15;;;;;;;7.23;85.25;100694.38;10298470;28;20411;-78
2023/03/01 01:10:22;;;;;;;169.18;79.65;;;;;;;7.13;85.11;100666.31;10298002;28;20055;-78
2023/03/01 01:15:22;;;;;;;149.90;64.25;;;;;;;6.70;84.96;100593.53;10296229;28;20133;-78
2023/03/01 01:20:23;;;;;;;123.50;53.35;;;;;;;7.47;84.96;100720.41;10296601;28;20043;-78
2023/03/01 01:25:26;;;;;;;49.20;25.27;;;;;;;6.98;85.01;100626.25;10297663;28;20089;-78
2023/03/01 01:30:27;;;;;;;39.77;20.03;;;;;;;6.88;84.85;100606.91;10297316;28;20039;-78
2023/03/01 01:35:28;;;;;;;29.00;19.00;;;;;;;7.46;84.88;100710.81;10296744;28;20055;-78
2023/03/01 01:40:29;;;;;;;35.08;19.77;;;;;;;7.57;85.07;100736.31;10299493;28;20483;-78
2023/03/01 01:45:35;;;;;;;36.78;19.55;;;;;;;7.57;86.15;100752.16;10336846;28;20046;-78
2023/03/01 01:50:40;;;;;;;30.77;18.45;;;;;;;7.45;86.35;100740.03;10312413;28;20050;-79
2023/03/01 01:55:45;;;;;;;27.23;18.20;;;;;;;7.58;85.52;100753.81;10295862;28;20047;-78
2023/03/01 02:00:47;;;;;;;30.25;16.88;;;;;;;7.31;85.35;100706.94;10296021;28;20077;-78
2023/03/01 02:05:51;;;;;;;29.90;17.52;;;;;;;6.35;86.46;100566.69;10298337;28;20038;-78
2023/03/01 02:10:53;;;;;;;;;;;;;;;7.69;85.81;100758.97;10336041;28;20082;-80
2023/03/01 02:15:54;;;;;;;49.53;27.63;;;;;;;7.54;84.58;100755.91;10328085;28;19922;-78
2023/03/01 02:21:16;;;;;;;97.55;47.10;;;;;;;6.94;86.12;100660.03;10295025;28;20483;-78
2023/03/01 02:26:29;;;;;;;66.53;34.70;;;;;;;7.46;86.92;100773.44;10294936;28;20035;-78
2023/03/01 02:31:42;;;;;;;109.20;53.00;;;;;;;7.24;86.00;100745.41;10294743;28;20077;-78
2023/03/01 02:37:04;;;;;;;97.63;49.65;;;;;;;7.36;89.02;100767.28;10294336;28;20048;-78
2023/03/01 02:42:06;;;;;;;123.50;50.63;;;;;;;7.22;86.18;100766.72;10295579;28;20043;-78
2023/03/01 02:47:07;;;;;;;104.18;49.05;;;;;;;6.79;86.01;100704.47;10293952;28;20038;-78
2023/03/01 02:52:16;;;;;;;43.22;22.13;;;;;;;6.88;88.50;100717.81;10294854;28;20130;-79
2023/03/01 02:57:18;;;;;;;32.25;18.15;;;;;;;7.04;86.83;100765.69;10328563;28;20054;-78
2023/03/01 03:02:38;;;;;;;30.13;17.27;;;;;;;7.06;87.80;100769.06;10288242;28;20034;-77
2023/03/01 03:07:41;;;;;;;31.58;18.25;;;;;;;6.96;87.70;100757.59;10288899;28;20579;-77
2023/03/01 03:12:42;;;;;;;30.08;16.35;;;;;;;6.98;87.35;100755.69;10281322;28;20062;-75
2023/03/01 03:17:44;;;;;;;29.58;16.20;;;;;;;6.96;87.38;100749.69;10303740;28;20043;-74
2023/03/01 03:22:46;;;;;;;26.13;15.02;;;;;;;6.95;88.29;100756.78;10293742;28;20055;-74
2023/03/01 03:27:49;;;;;;;25.60;15.30;;;;;;;6.95;87.98;100753.31;10293051;28;20077;-77
2023/03/01 03:32:53;;;;;;;26.73;16.13;;;;;;;6.93;88.14;100744.66;10291513;28;20082;-76
2023/03/01 03:38:02;;;;;;;27.80;15.70;;;;;;;6.68;87.52;100711.66;10291142;28;20042;-77
2023/03/01 03:43:05;;;;;;;27.10;13.80;;;;;;;6.92;87.51;100746.47;10291946;28;20519;-75
2023/03/01 03:48:09;;;;;;;22.58;14.80;;;;;;;6.98;87.90;100767.06;10291583;28;20114;-74
2023/03/01 03:53:12;;;;;;;101.80;55.83;;;;;;;7.00;86.97;100759.84;10290923;28;20038;-75
2023/03/01 03:58:12;;;;;;;36.95;19.27;;;;;;;7.04;87.39;100763.88;10290539;28;20267;-75
2023/03/01 04:03:15;;;;;;;54.33;24.27;;;;;;;7.10;87.33;100759.88;10291613;28;20066;-77
2023/03/01 04:08:19;;;;;;;25.65;15.55;;;;;;;7.11;86.66;100756.25;10293480;28;20086;-76
2023/03/01 04:13:22;;;;;;;28.63;13.82;;;;;;;7.18;86.76;100772.38;10311848;28;20042;-74
2023/03/01 04:18:24;;;;;;;26.38;12.80;;;;;;;7.06;86.64;100747.91;10291291;28;20042;-74
2023/03/01 04:23:25;;;;;;;26.23;12.25;;;;;;;6.36;86.03;100644.84;10292055;28;20045;-75
2023/03/01 04:28:34;;;;;;;23.80;12.95;;;;;;;6.93;87.90;100753.41;10289111;28;20042;-76
2023/03/01 04:33:34;;;;;;;23.15;13.20;;;;;;;6.34;86.86;100678.47;10297363;28;20439;-80
2023/03/01 04:38:37;;;;;;;40.42;20.35;;;;;;;6.80;86.89;100772.16;10306621;28;20050;-77
2023/03/01 04:43:38;;;;;;;25.35;13.50;;;;;;;6.70;86.39;100763.38;10317762;28;20059;-78
2023/03/01 04:48:40;;;;;;;25.88;11.68;;;;;;;6.70;86.60;100773.06;10320302;28;20051;-80
2023/03/01 04:53:42;;;;;;;19.75;11.27;;;;;;;6.54;85.97;100763.00;10315574;28;20047;-79
2023/03/01 04:58:43;;;;;;;20.58;11.38;;;;;;;6.49;86.02;100728.25;10287995;28;20189;-79
2023/03/01 05:03:46;;;;;;;21.45;10.77;;;;;;;6.67;85.63;100750.44;10289383;28;20074;-78
2023/03/01 05:08:47;;;;;;;16.40;9.95;;;;;;;6.38;85.46;100708.91;10289353;28;20063;-79
2023/03/01 05:13:49;;;;;;;18.60;10.68;;;;;;;6.78;85.50;100755.59;10290075;28;20104;-78
2023/03/01 05:18:50;;;;;;;18.40;10.35;;;;;;;6.58;85.58;100722.16;10291078;28;20053;-77
2023/03/01 05:23:51;;;;;;;17.05;10.73;;;;;;;6.88;84.98;100766.22;10292908;28;20054;-78
2023/03/01 05:28:52;;;;;;;25.42;11.68;;;;;;;6.73;85.15;100736.69;10297022;28;20046;-78
2023/03/01 05:33:53;;;;;;;21.58;10.60;;;;;;;6.39;84.48;100672.78;10296872;28;20046;-79
2023/03/01 05:38:53;;;;;;;30.88;15.82;;;;;;;6.65;84.30;100702.19;10296770;28;20522;-78
2023/03/01 05:43:54;;;;;;;17.33;9.65;;;;;;;7.03;83.71;100761.38;10297532;28;20050;-78
2023/03/01 05:48:56;;;;;;;16.02;9.30;;;;;;;6.92;83.50;100735.91;10296729;28;20366;-78
2023/03/01 05:53:56;;;;;;;724.85;438.02;;;;;;;6.82;82.77;100709.50;10296705;28;20039;-78
2023/03/01 05:58:57;;;;;;;239.38;110.25;;;;;;;6.95;82.18;100706.59;10311274;28;20438;-78
2023/03/01 06:03:58;;;;;;;69.97;32.42;;;;;;;7.21;81.35;100711.34;10295472;28;20058;-78
2023/03/01 06:08:58;;;;;;;75.68;32.22;;;;;;;6.91;80.94;100657.66;10311612;28;20054;-79
2023/03/01 06:13:59;;;;;;;32.65;16.42;;;;;;;7.42;80.97;100719.16;10295896;28;20094;-79
2023/03/01 06:19:00;;;;;;;51.17;24.27;;;;;;;6.86;80.41;100599.97;10295877;28;20403;-78
2023/03/01 06:24:01;;;;;;;77.63;35.00;;;;;;;7.26;79.98;100653.66;10295462;28;20046;-78
2023/03/01 06:29:02;;;;;;;53.42;20.90;;;;;;;7.51;80.10;100687.47;10294608;28;20039;-79
2023/03/01 06:34:03;;;;;;;59.85;26.38;;;;;;;7.41;79.86;100644.31;10294224;28;20411;-79
2023/03/01 06:39:05;;;;;;;24.02;10.98;;;;;;;6.76;79.39;100535.75;10294707;28;20109;-79
2023/03/01 06:44:05;;;;;;;32.72;17.95;;;;;;;7.63;79.84;100672.28;10295180;28;20038;-79
2023/03/01 06:49:09;;;;;;;27.83;12.77;;;;;;;7.84;79.70;100672.13;10294640;28;20395;-79
2023/03/01 06:54:10;;;;;;;17.92;11.02;;;;;;;7.77;79.59;100673.63;10309240;28;20133;-78
2023/03/01 06:59:11;;;;;;;21.90;13.63;;;;;;;7.43;79.58;100592.16;10293615;28;20415;-77
2023/03/01 07:04:13;;;;;;;18.27;11.07;;;;;;;7.46;79.05;100559.31;10294670;28;20043;-77
2023/03/01 07:09:14;;;;;;;20.80;11.80;;;;;;;7.19;78.30;100488.72;10293426;28;20410;-78
2023/03/01 07:14:15;;;;;;;18.70;10.95;;;;;;;8.18;77.71;100616.03;10293675;28;20046;-78
2023/03/01 07:19:16;;;;;;;12.32;7.88;;;;;;;8.55;77.20;100653.06;10293184;28;20407;-79
2023/03/01 07:24:17;;;;;;;16.05;9.35;;;;;;;8.90;76.44;100662.09;10293290;28;20045;-78
2023/03/01 07:29:18;;;;;;;15.90;9.10;;;;;;;9.12;75.28;100656.38;10293055;28;20482;-78
2023/03/01 07:34:18;;;;;;;23.02;10.98;;;;;;;9.24;74.68;100630.44;10292706;28;20521;-78
2023/03/01 07:39:19;;;;;;;10.95;7.80;;;;;;;8.47;74.08;100541.81;10292786;28;20121;-78
2023/03/01 07:44:20;;;;;;;12.70;7.75;;;;;;;8.53;74.14;100554.44;10292232;28;20507;-78
2023/03/01 07:49:21;;;;;;;15.27;8.30;;;;;;;9.08;73.82;100651.50;10291196;28;20046;-78
2023/03/01 07:54:22;;;;;;;14.85;8.20;;;;;;;8.79;73.61;100543.91;10292119;28;20403;-78
2023/03/01 07:59:28;;;;;;;11.40;8.07;;;;;;;9.01;72.19;100524.09;10292045;28;20041;-79
2023/03/01 08:04:29;;;;;;;11.43;7.75;;;;;;;9.18;71.38;100569.25;10291939;28;20051;-79
2023/03/01 08:09:30;;;;;;;13.95;8.07;;;;;;;9.30;71.79;100615.75;10292421;28;20412;-78
2023/03/01 08:14:34;;;;;;;11.70;8.02;;;;;;;9.17;71.61;100631.22;10291950;28;20061;-78
2023/03/01 08:19:35;;;;;;;12.50;7.32;;;;;;;8.53;71.76;100496.19;10306103;28;20129;-79
2023/03/01 08:24:35;;;;;;;11.48;7.45;;;;;;;9.19;70.98;100539.13;10290933;28;20566;-78
2023/03/01 08:29:36;;;;;;;11.68;8.00;;;;;;;9.81;69.76;100616.78;10292058;28;20491;-79
2023/03/01 08:34:37;;;;;;;11.02;7.40;;;;;;;9.65;69.48;100568.94;10305589;28;20042;-78
2023/03/01 08:39:38;;;;;;;9.90;7.38;;;;;;;9.67;69.68;100557.19;10290648;28;20090;-78
2023/03/01 08:44:38;;;;;;;11.13;7.40;;;;;;;9.74;69.24;100547.59;10290558;28;20039;-78
2023/03/01 08:49:39;;;;;;;12.13;7.05;;;;;;;9.86;68.38;100523.47;10290637;28;20039;-79
2023/03/01 08:54:40;;;;;;;11.48;6.78;;;;;;;10.55;67.73;100530.34;10305236;28;20053;-78
2023/03/01 08:59:41;;;;;;;8.50;5.82;;;;;;;10.36;65.97;100459.78;10294368;28;20042;-79
2023/03/01 09:04:42;;;;;;;9.43;6.43;;;;;;;10.66;66.01;100566.41;10297765;28;20258;-78
2023/03/01 09:09:43;;;;;;;10.65;6.63;;;;;;;9.86;65.81;100457.13;10298750;28;20057;-78
2023/03/01 09:14:44;;;;;;;9.23;6.18;;;;;;;10.54;66.31;100544.63;10313484;28;20050;-78
2023/03/01 09:19:44;;;;;;;9.95;5.85;;;;;;;10.51;65.46;100521.88;10298476;28;20047;-78
2023/03/01 09:24:45;;;;;;;22.67;8.48;;;;;;;10.68;65.13;100516.59;10297878;28;20403;-78
2023/03/01 09:29:46;;;;;;;52.80;9.13;;;;;;;10.68;63.73;100419.13;10297161;28;20070;-79
2023/03/01 09:35:04;;;;;;;8.10;5.50;;;;;;;11.33;62.57;100500.59;10297613;28;20141;-78
2023/03/01 09:40:07;;;;;;;17.05;6.60;;;;;;;10.93;61.74;100414.59;10298092;28;20145;-78
2023/03/01 09:45:20;;;;;;;15.02;6.90;;;;;;;11.49;61.53;100485.63;10297428;28;20479;-78
2023/03/01 09:50:21;;;;;;;13.90;6.90;;;;;;;11.23;60.91;100422.84;10296827;28;20093;-78
2023/03/01 09:55:39;;;;;;;11.50;6.13;;;;;;;11.40;61.21;100447.59;10296413;28;20513;-78
2023/03/01 10:00:44;;;;;;;8.63;5.85;;;;;;;11.62;60.52;100483.25;10296937;28;20042;-78
2023/03/01 10:05:45;;;;;;;9.52;5.88;;;;;;;11.64;61.44;100467.97;10296243;28;20299;-76
2023/03/01 10:10:48;;;;;;;9.52;6.20;;;;;;;11.30;60.87;100460.22;10295068;28;20062;-76
2023/03/01 10:15:59;;;;;;;11.80;6.03;;;;;;;11.18;60.41;100422.53;10296284;28;20157;-76
2023/03/01 10:21:19;;;;;;;8.75;5.32;;;;;;;11.23;60.88;100432.66;10296566;28;20066;-76
2023/03/01 10:26:44;;;;;;;10.07;5.47;;;;;;;11.34;59.65;100438.44;10296320;28;20058;-77
2023/03/01 10:31:53;;;;;;;7.78;5.47;;;;;;;11.17;60.03;100450.13;10294917;28;20046;-77
2023/03/01 10:37:01;;;;;;;7.20;5.13;;;;;;;11.10;58.87;100420.72;10295332;28;20051;-78
2023/03/01 10:42:18;;;;;;;8.68;4.93;;;;;;;11.42;57.28;100409.16;10294889;28;20046;-78
2023/03/01 10:47:23;;;;;;;9.38;6.22;;;;;;;11.46;57.24;100393.69;10293750;28;20403;-77
2023/03/01 10:52:26;;;;;;;;;;;;;;;11.71;57.87;100417.53;10293526;28;20373;-77
2023/03/01 10:57:40;;;;;;;8.68;5.80;;;;;;;10.83;55.71;100322.75;10293720;28;19961;-77
2023/03/01 11:02:41;;;;;;;9.35;5.30;;;;;;;11.16;55.09;100327.00;10293528;28;20097;-77
2023/03/01 11:08:11;;;;;;;8.48;5.47;;;;;;;11.67;54.21;100347.88;10293520;28;20105;-77
2023/03/01 11:13:18;;;;;;;8.65;5.63;;;;;;;11.71;54.35;100390.91;10288397;28;20055;-77
2023/03/01 11:18:21;;;;;;;8.65;5.30;;;;;;;11.68;54.59;100385.94;10292935;28;20042;-77
2023/03/01 11:23:22;;;;;;;7.13;4.85;;;;;;;11.36;54.72;100323.91;10292002;28;20046;-77
2023/03/01 11:28:25;;;;;;;8.50;5.57;;;;;;;11.46;54.45;100383.06;10294111;28;20384;-77
2023/03/01 11:33:41;;;;;;;8.15;5.30;;;;;;;11.59;54.40;100415.25;10292883;28;20042;-77
2023/03/01 11:38:43;;;;;;;7.80;4.88;;;;;;;11.19;55.07;100339.94;10292001;28;20050;-77
2023/03/01 11:43:54;;;;;;;8.27;5.30;;;;;;;11.57;53.62;100413.75;10291920;28;20062;-77
2023/03/01 11:49:10;;;;;;;8.93;5.30;;;;;;;11.31;53.84;100424.69;10291807;28;20315;-77
2023/03/01 11:54:28;;;;;;;8.65;4.95;;;;;;;11.00;54.50;100382.03;10292222;28;20047;-76
2023/03/01 11:59:39;;;;;;;8.02;5.75;;;;;;;11.04;54.32;100392.16;10291708;28;20119;-77
2023/03/01 12:04:49;;;;;;;9.60;5.88;;;;;;;11.01;54.65;100413.78;10307092;28;20061;-77
2023/03/01 12:10:23;;;;;;;11.43;5.85;;;;;;;10.65;55.55;100360.16;10306573;28;20061;-77
2023/03/01 12:16:03;;;;;;;12.77;6.70;;;;;;;11.00;55.22;100419.25;10291163;28;20074;-77
2023/03/01 12:21:31;;;;;;;10.70;6.28;;;;;;;10.70;55.64;100389.72;10309752;28;20104;-77
2023/03/01 12:26:59;;;;;;;7.43;5.47;;;;;;;10.33;55.94;100330.00;10304779;28;20052;-79
2023/03/01 12:32:19;;;;;;;9.32;5.90;;;;;;;10.34;56.83;100328.16;10292120;28;20140;-78
2023/03/01 12:37:40;;;;;;;9.50;6.32;;;;;;;9.12;56.38;100154.63;10299041;28;20122;-78
2023/03/01 12:43:14;;;;;;;15.35;6.32;;;;;;;10.64;57.51;100393.88;10318217;28;20038;-79
2023/03/01 12:48:39;;;;;;;12.32;6.65;;;;;;;10.58;57.17;100380.44;10310953;28;20542;-79
2023/03/01 12:53:48;;;;;;;22.63;7.72;;;;;;;10.58;57.39;100365.31;10317762;28;20109;-79
2023/03/01 12:59:18;;;;;;;11.55;7.78;;;;;;;10.72;58.34;100393.03;10307548;28;20135;-79
2023/03/01 13:04:29;;;;;;;15.60;9.70;;;;;;;10.01;58.27;100315.66;10305316;28;20038;-78
2023/03/01 13:09:30;;;;;;;16.67;9.73;;;;;;;9.82;59.23;100300.09;10338296;28;20086;-78
2023/03/01 13:14:31;;;;;;;13.85;10.23;;;;;;;9.76;59.38;100320.13;10333235;28;20521;-81
2023/03/01 13:19:36;;;;;;;15.20;10.60;;;;;;;9.68;59.99;100328.06;10302543;28;20053;-80
2023/03/01 13:24:41;;;;;;;14.52;9.60;;;;;;;10.02;60.20;100407.59;10308481;28;20039;-83
2023/03/01 13:29:51;;;;;;;14.85;10.38;;;;;;;9.86;60.12;100378.34;10318032;28;20039;-80
2023/03/01 13:34:56;;;;;;;14.07;10.18;;;;;;;9.84;60.26;100393.59;10290737;28;20049;-80
2023/03/01 13:40:01;;;;;;;15.80;10.18;;;;;;;9.54;60.57;100379.94;10329269;28;20081;-80
2023/03/01 13:45:03;;;;;;;13.88;10.02;;;;;;;9.02;60.71;100305.81;10307046;28;20506;-79
2023/03/01 13:50:04;;;;;;;16.42;10.50;;;;;;;9.19;60.83;100343.00;10298163;28;20051;-78
2023/03/01 13:55:18;;;;;;;16.52;10.45;;;;;;;8.91;61.44;100314.03;10296803;28;20406;-78
2023/03/01 14:00:32;;;;;;;15.00;10.23;;;;;;;8.79;64.17;100321.41;10297038;28;20042;-78
2023/03/01 14:05:33;;;;;;;;;;;;;;;9.18;64.52;100391.69;10296520;28;20043;-76
2023/03/01 14:10:53;;;;;;;16.55;11.68;;;;;;;8.42;66.64;100327.81;10296781;28;20106;-76
2023/03/01 14:16:13;;;;;;;16.92;12.45;;;;;;;8.82;69.29;100405.03;10295726;28;20537;-78
2023/03/01 14:21:16;;;;;;;18.98;12.48;;;;;;;8.47;68.03;100364.41;10295554;28;20035;-77
2023/03/01 14:26:22;;;;;;;28.65;14.93;;;;;;;7.79;70.01;100285.59;10295730;28;20039;-77
2023/03/01 14:31:39;;;;;;;23.80;15.73;;;;;;;8.37;71.85;100398.03;10294781;28;20050;-77
2023/03/01 14:36:39;;;;;;;26.80;16.23;;;;;;;8.03;70.13;100376.72;10284010;28;20089;-79
2023/03/01 14:41:40;;;;;;;21.75;14.60;;;;;;;7.22;71.30;100256.78;10297734;28;20045;-73
2023/03/01 14:46:44;;;;;;;26.30;16.48;;;;;;;7.91;74.08;100399.94;10293599;28;20086;-74
2023/03/01 14:52:03;;;;;;;23.30;16.87;;;;;;;7.20;76.86;100293.06;10291903;28;20591;-76
2023/03/01 14:57:04;;;;;;;33.05;19.25;;;;;;;7.62;74.03;100361.25;10296729;28;20298;-69
2023/03/01 15:02:16;;;;;;;24.25;16.33;;;;;;;7.75;75.34;100387.38;10302722;28;20142;-73
2023/03/01 15:07:18;;;;;;;24.42;16.27;;;;;;;7.15;74.28;100297.97;10326453;28;20046;-72
2023/03/01 15:12:28;;;;;;;27.83;17.40;;;;;;;7.70;77.75;100392.25;10292799;28;20141;-76
2023/03/01 15:17:35;;;;;;;31.83;16.90;;;;;;;7.55;78.06;100394.56;10290884;28;20061;-76
2023/03/01 15:22:36;;;;;;;26.23;17.75;;;;;;;7.43;77.11;100404.50;10291983;28;20038;-79
2023/03/01 15:27:42;;;;;;;26.48;17.15;;;;;;;7.27;77.10;100375.25;10291187;28;20046;-74
2023/03/01 15:32:42;;;;;;;24.10;16.02;;;;;;;6.94;77.48;100324.63;10291911;28;20105;-70
2023/03/01 15:37:49;;;;;;;24.48;16.67;;;;;;;7.09;79.54;100373.34;10291057;28;20535;-73
2023/03/01 15:42:51;;;;;;;29.13;16.73;;;;;;;7.40;78.78;100423.28;10291206;28;20043;-74
2023/03/01 15:48:04;;;;;;;26.63;17.48;;;;;;;6.47;79.18;100285.03;10290087;28;20051;-73
2023/03/01 15:53:11;;;;;;;26.33;17.05;;;;;;;6.89;79.04;100341.88;10291116;28;20049;-75
2023/03/01 15:58:11;;;;;;;23.33;16.65;;;;;;;7.39;79.44;100442.78;10289620;28;20047;-74
2023/03/01 16:03:12;;;;;;;25.52;15.45;;;;;;;6.92;79.42;100358.25;10291913;28;20054;-73
2023/03/01 16:08:13;;;;;;;22.50;15.10;;;;;;;7.20;79.36;100416.41;10290761;28;20142;-73
2023/03/01 16:13:14;;;;;;;20.85;14.65;;;;;;;7.32;79.24;100436.38;10293348;28;20503;-74
2023/03/01 16:18:14;;;;;;;22.05;14.30;;;;;;;6.79;79.53;100340.09;10310357;28;20057;-73
2023/03/01 16:23:15;;;;;;;19.95;14.07;;;;;;;6.99;79.64;100379.63;10301548;28;20046;-73
2023/03/01 16:28:16;;;;;;;21.65;13.55;;;;;;;6.87;80.20;100360.50;10286661;28;20047;-75
2023/03/01 16:33:17;;;;;;;23.58;13.57;;;;;;;6.99;80.45;100377.00;10289149;28;20035;-77
2023/03/01 16:38:18;;;;;;;18.95;12.68;;;;;;;6.79;80.66;100350.66;10276238;28;20043;-75
2023/03/01 16:43:19;;;;;;;21.80;13.43;;;;;;;7.13;80.32;100408.22;10281733;28;20461;-74
2023/03/01 16:48:19;;;;;;;18.55;12.10;;;;;;;7.15;80.91;100416.00;10300914;28;20045;-74
2023/03/01 16:53:21;;;;;;;17.42;11.18;;;;;;;7.21;81.39;100428.63;10288649;28;20073;-75
2023/03/01 16:58:24;;;;;;;18.30;12.68;;;;;;;6.71;82.07;100368.19;10290690;28;20754;-75
2023/03/01 17:03:26;;;;;;;21.15;11.70;;;;;;;7.18;82.58;100436.84;10292588;28;20054;-75
2023/03/01 17:08:27;;;;;;;17.77;12.68;;;;;;;6.21;82.15;100286.59;10276840;28;20098;-74
2023/03/01 17:13:28;;;;;;;18.67;12.32;;;;;;;7.10;83.18;100427.00;10271527;28;20050;-76
2023/03/01 17:18:29;;;;;;;22.25;12.98;;;;;;;6.96;83.08;100420.38;10285140;28;20046;-77
2023/03/01 17:23:31;;;;;;;19.15;12.32;;;;;;;7.11;83.58;100443.69;10289142;28;20046;-74
2023/03/01 17:28:35;;;;;;;18.67;11.82;;;;;;;6.96;83.03;100430.09;10288761;28;20035;-76
2023/03/01 17:33:36;;;;;;;17.80;12.38;;;;;;;7.08;83.21;100447.44;10289801;28;20580;-75
2023/03/01 17:38:36;;;;;;;21.52;12.05;;;;;;;6.97;84.08;100442.31;10283937;28;20046;-75
2023/03/01 17:43:37;;;;;;;21.30;12.32;;;;;;;6.94;83.70;100437.31;10286762;28;20043;-75
2023/03/01 17:48:39;;;;;;;20.45;13.35;;;;;;;6.36;83.89;100335.31;10285535;28;20046;-74
2023/03/01 17:53:40;;;;;;;19.10;12.52;;;;;;;7.07;83.73;100459.00;10272694;28;20043;-74
2023/03/01 17:58:40;;;;;;;22.83;12.57;;;;;;;7.03;84.20;100457.59;10288662;28;20048;-74
2023/03/01 18:03:43;;;;;;;22.48;13.75;;;;;;;6.83;84.15;100427.78;10279476;28;20043;-74
2023/03/01 18:08:46;;;;;;;35.45;13.05;;;;;;;6.42;83.71;100371.69;10305100;28;20066;-74
2023/03/01 18:13:47;;;;;;;29.15;14.02;;;;;;;6.98;84.24;100465.97;10275890;28;20035;-74
2023/03/01 18:18:52;;;;;;;22.30;12.98;;;;;;;6.99;85.14;100466.78;10289926;28;20133;-75
2023/03/01 18:23:54;;;;;;;29.00;13.88;;;;;;;6.97;84.53;100466.94;10271832;28;20043;-75
2023/03/01 18:28:57;;;;;;;23.30;12.45;;;;;;;6.98;83.97;100465.13;10272266;28;20038;-75
2023/03/01 18:33:59;;;;;;;23.92;12.73;;;;;;;6.54;84.02;100389.03;10302412;28;20129;-75
2023/03/01 18:39:05;;;;;;;25.20;13.55;;;;;;;6.96;84.49;100465.25;10295085;28;20042;-75
2023/03/01 18:44:07;;;;;;;21.65;12.85;;;;;;;6.34;83.57;100348.66;10294994;28;20047;-75
2023/03/01 18:49:09;;;;;;;27.35;12.88;;;;;;;6.78;83.28;100430.81;10296816;28;20043;-75
2023/03/01 18:54:11;;;;;;;20.70;13.20;;;;;;;6.89;83.57;100447.50;10301255;28;20047;-75
2023/03/01 18:59:12;;;;;;;37.95;13.65;;;;;;;6.67;82.83;100425.72;10295089;28;20046;-75
2023/03/01 19:04:13;;;;;;;25.88;14.25;;;;;;;6.87;82.49;100466.13;10294293;28;20422;-75
2023/03/01 19:09:14;;;;;;;20.20;12.80;;;;;;;6.22;81.87;100373.50;10293373;28;20065;-76
2023/03/01 19:14:15;;;;;;;28.98;14.20;;;;;;;6.47;82.14;100418.78;10293272;28;20134;-76
2023/03/01 19:19:16;;;;;;;24.50;13.32;;;;;;;6.22;81.60;100388.50;10292998;28;20042;-74
2023/03/01 19:24:17;;;;;;;18.45;12.07;;;;;;;6.60;81.82;100461.56;10292047;28;20074;-74
2023/03/01 19:29:17;;;;;;;22.73;13.00;;;;;;;6.66;82.00;100479.47;10292684;28;20034;-74
2023/03/01 19:34:18;;;;;;;19.02;11.73;;;;;;;6.28;81.24;100436.28;10292426;28;20047;-74
2023/03/01 19:39:19;;;;;;;23.25;12.57;;;;;;;6.30;81.29;100446.69;10293041;28;20064;-75
2023/03/01 19:44:23;;;;;;;22.88;13.25;;;;;;;6.17;81.57;100434.59;10292069;28;20043;-75
2023/03/01 19:49:25;;;;;;;;;;;;;;;6.63;82.51;100495.59;10293309;28;20081;-74
2023/03/01 19:54:26;;;;;;;17.60;11.88;;;;;;;6.14;81.13;100429.59;10292155;28;20021;-74
2023/03/01 19:59:27;;;;;;;22.35;12.65;;;;;;;6.53;81.70;100500.88;10292227;28;20465;-74
2023/03/01 20:04:28;;;;;;;16.85;12.00;;;;;;;5.70;81.86;100372.88;10292380;28;20057;-74
2023/03/01 20:09:28;;;;;;;18.10;12.63;;;;;;;6.34;82.71;100501.69;10291171;28;20400;-75
2023/03/01 20:14:29;;;;;;;18.77;11.90;;;;;;;6.15;82.68;100493.72;10292758;28;20078;-76
2023/03/01 20:19:30;;;;;;;15.85;11.15;;;;;;;6.17;82.20;100513.72;10291670;28;20042;-75
2023/03/01 20:24:31;;;;;;;16.30;10.43;;;;;;;5.99;81.08;100506.63;10291712;28;20078;-76
2023/03/01 20:29:31;;;;;;;12.65;8.43;;;;;;;5.71;80.15;100479.97;10291474;28;20077;-75
2023/03/01 20:34:32;;;;;;;25.23;11.57;;;;;;;5.79;77.84;100518.84;10302277;28;20418;-76
2023/03/01 20:39:33;;;;;;;39.42;19.40;;;;;;;5.63;75.36;100508.81;10291950;28;20495;-76
2023/03/01 20:44:34;;;;;;;18.30;11.32;;;;;;;5.82;73.50;100537.03;10291327;28;20101;-75
2023/03/01 20:49:35;;;;;;;10.45;6.68;;;;;;;5.76;73.37;100538.41;10291532;28;20051;-75
2023/03/01 20:54:36;;;;;;;11.45;7.25;;;;;;;5.10;72.55;100443.91;10295535;28;20399;-75
2023/03/01 20:59:37;;;;;;;21.60;10.57;;;;;;;5.35;69.94;100516.41;10298346;28;20038;-75
2023/03/01 21:04:37;;;;;;;17.58;7.18;;;;;;;5.33;68.87;100547.34;10299422;28;20635;-75
2023/03/01 21:09:38;;;;;;;15.85;7.22;;;;;;;4.62;67.20;100464.66;10299205;28;20050;-76
2023/03/01 21:14:42;;;;;;;20.90;9.00;;;;;;;3.92;65.52;100381.84;10297942;28;20054;-76
2023/03/01 21:19:44;;;;;;;8.63;4.80;;;;;;;4.85;63.87;100578.56;10296523;28;20070;-75
2023/03/01 21:24:44;;;;;;;7.35;4.65;;;;;;;4.69;63.32;100594.75;10297418;28;20074;-75
2023/03/01 21:29:45;;;;;;;11.23;5.18;;;;;;;4.48;62.41;100586.78;10297353;28;20503;-76
2023/03/01 21:34:46;;;;;;;9.98;4.93;;;;;;;4.41;62.48;100577.72;10297405;28;20034;-76
2023/03/01 21:39:47;;;;;;;8.52;4.85;;;;;;;4.07;61.91;100541.81;10296840;28;20046;-75
2023/03/01 21:44:48;;;;;;;10.25;5.43;;;;;;;3.79;62.47;100490.56;10296658;28;20042;-76
2023/03/01 21:49:48;;;;;;;12.85;7.03;;;;;;;4.20;62.29;100572.38;10296643;28;20039;-75
2023/03/01 21:54:50;;;;;;;14.73;8.25;;;;;;;4.07;61.40;100578.59;10296884;28;20046;-76
2023/03/01 21:59:51;;;;;;;14.95;8.30;;;;;;;3.69;62.05;100530.84;10296886;28;20042;-76
2023/03/01 22:04:56;;;;;;;14.40;8.63;;;;;;;3.70;61.77;100553.50;10296154;28;20039;-76
2023/03/01 22:09:57;;;;;;;17.95;10.27;;;;;;;3.63;61.98;100569.75;10296488;28;20062;-76
2023/03/01 22:14:57;;;;;;;17.23;9.77;;;;;;;3.14;62.14;100518.34;10295509;28;20046;-76
2023/03/01 22:19:58;;;;;;;17.98;9.20;;;;;;;2.66;62.40;100484.34;10296324;28;20034;-76
2023/03/01 22:24:59;;;;;;;13.90;7.95;;;;;;;3.17;62.77;100588.13;10305774;28;20034;-76
2023/03/01 22:30:00;;;;;;;15.00;8.48;;;;;;;3.08;62.96;100583.56;10296238;28;20046;-76
2023/03/01 22:35:01;;;;;;;12.55;8.23;;;;;;;2.97;63.39;100590.47;10294651;28;20426;-76
2023/03/01 22:40:02;;;;;;;12.93;7.55;;;;;;;2.63;63.27;100558.00;10293957;28;20046;-75
2023/03/01 22:45:04;;;;;;;17.73;9.55;;;;;;;2.72;63.34;100591.44;10294757;28;20042;-76
2023/03/01 22:50:06;;;;;;;14.15;9.45;;;;;;;2.78;62.99;100615.53;10294882;28;20279;-76
2023/03/01 22:55:08;;;;;;;19.25;10.05;;;;;;;2.48;63.09;100591.41;10294449;28;20388;-76
2023/03/01 23:00:12;;;;;;;18.73;9.57;;;;;;;2.33;62.51;100591.66;10293951;28;20038;-76
2023/03/01 23:05:13;;;;;;;14.82;9.43;;;;;;;2.04;62.94;100552.63;10293533;28;20112;-76